DeKalb Peachtree Airport
KPDK : rendu visible

Aérodrome :











RETROUVEZ-NOUS SUR...

 
LOGIN :

S'inscrire | Disclaimer

   EN    FR    IT 

 









Légende :    VFR   VFR Marginal   IFR   IFR Intensif   IFR Très Intensif
Visi : 
Plafond : 
>= 8 km
>= 3000ft
5 à 8 km
1000 à 3000 ft
1500m à 5 km
500 à 1000 ft
800 à 1500m
200 à 500 ft
< 800m
< 200 ft
Symboles :   Orages  Brouillard  Fortes neiges  Fortes précipitations  Vent > 20 kt






- Altitude de l'aérodrome : 1003 ft


KPDK - DeKalb Peachtree

DERNIER METAR :
  • 150653Z AUTO 35004KT 4SM -RA BR BKN004 OVC060 06/06 A3020 RMK AO2 SLP236 P0007 T00560056

METARs EXPIRÉS :
  • 150634Z AUTO 02004KT 4SM -RA BR SCT004 OVC065 06/05 A3020 RMK AO2 P0006 T00560050
  • 150601Z AUTO 02004KT 3SM -RA BR BKN003 OVC060 06/05 A3020 RMK AO2 P0001 T00560050
  • 150553Z AUTO 03004KT 3SM -RA BR SCT004 BKN014 OVC065 06/05 A3021 RMK AO2 SLP239 P0004 60024 T00560050 10056 20044 58012
  • 150453Z AUTO 02006KT 4SM -RA BR FEW004 OVC020 05/04 A3024 RMK AO2 SLP250 P0006 T00500044 400610000

TAF KPDK
Valide du 15 à 08h jusqu'au 16 à 06h UTC


150730Z 1508/1606 36005KT 4SM -RA BR BKN007 OVC015
TEMPO 1508/1512 2SM -RADZ BR OVC004
FM151200 36006KT 6SM -RA BR SCT005 OVC009
FM151800 35008KT P6SM VCSH SCT015 OVC024
FM152300 33006KT P6SM BKN040



MET'MAP, la Météo Aéronautique d'un coup d'oeil ! - Copyright ORBIFLY Décembre 2007 - Disclaimer

ORBIFLY MET'MAP TEAM :

Programmation & Développement : Alexandra Zaïnal
Conception & Développement : Baudouin d'Aumeries
Co-Programmation & Développement : Marc-Olivier Méhu
Soutien technique & logistique : Manuel Goepfert

Contact : metmap@orbifly.com




SOURCES & CREDITS :

   NOAA       Earth
Advisory